Time;durP1;ratioP1;P1;durP2;ratioP2;P2;SDS_P1;SDS_P2;PMS_P1;PMS_P2;Temp;Humidity;BMP_temperature;BMP_pressure;BME280_temperature;BME280_humidity;BME280_pressure;Samples;Min_cycle;Max_cycle;Signal;HPM_P1;HPM_P2
2021/12/26 00:00:16;;;;;;;14.17;7.40;;;6.30;55.30;;;;;;5056524;28;20467;-84
2021/12/26 00:02:45;;;;;;;17.70;7.10;;;6.30;55.50;;;;;;5073458;28;20455;-83
2021/12/26 00:05:13;;;;;;;14.90;8.40;;;6.40;55.60;;;;;;5086056;28;20471;-84
2021/12/26 00:07:41;;;;;;;11.87;7.60;;;6.50;55.50;;;;;;5058714;28;20474;-84
2021/12/26 00:10:10;;;;;;;20.03;9.10;;;6.60;55.60;;;;;;5075577;28;20439;-84
2021/12/26 00:12:38;;;;;;;14.60;7.53;;;6.60;55.40;;;;;;5080635;28;20470;-82
2021/12/26 00:15:06;;;;;;;15.37;8.10;;;6.50;54.80;;;;;;5076057;28;20535;-84
2021/12/26 00:17:33;;;;;;;15.33;9.33;;;6.30;54.80;;;;;;5091869;27;21064;-84
2021/12/26 00:20:01;;;;;;;16.60;8.60;;;6.40;55.30;;;;;;5079765;28;20458;-84
2021/12/26 00:22:29;;;;;;;12.23;6.87;;;6.60;55.70;;;;;;5059458;28;20452;-84
2021/12/26 00:24:56;;;;;;;13.13;8.50;;;6.60;55.30;;;;;;5074473;28;22462;-84
2021/12/26 00:27:23;;;;;;;16.53;8.73;;;6.50;55.80;;;;;;5074943;28;20508;-84
2021/12/26 00:29:50;;;;;;;13.23;7.03;;;6.60;55.20;;;;;;5073159;28;20459;-85
2021/12/26 00:32:17;;;;;;;15.87;8.70;;;6.50;54.80;;;;;;5067469;28;20472;-84
2021/12/26 00:34:45;;;;;;;22.20;10.43;;;6.50;55.00;;;;;;5058459;28;20486;-85
2021/12/26 00:37:12;;;;;;;13.97;7.83;;;6.60;55.70;;;;;;5084082;28;20490;-85
2021/12/26 00:39:41;;;;;;;13.70;7.53;;;6.50;55.20;;;;;;5078593;28;20829;-85
2021/12/26 00:42:10;;;;;;;12.40;7.50;;;6.50;55.00;;;;;;5093603;28;21039;-85
2021/12/26 00:44:39;;;;;;;13.77;7.73;;;6.50;55.00;;;;;;5076137;28;20475;-81
2021/12/26 00:47:08;;;;;;;19.43;8.17;;;6.50;54.80;;;;;;5096177;27;20470;-84
2021/12/26 00:49:35;;;;;;;14.60;7.50;;;6.50;55.40;;;;;;5077650;28;21047;-85
2021/12/26 00:52:03;;;;;;;16.10;7.60;;;6.50;55.00;;;;;;5080720;28;20863;-85
2021/12/26 00:54:31;;;;;;;11.77;7.67;;;6.40;55.00;;;;;;5088482;28;21013;-85
2021/12/26 00:56:59;;;;;;;10.77;7.57;;;6.40;55.20;;;;;;5061627;28;20506;-85
2021/12/26 00:59:27;;;;;;;14.63;8.57;;;6.50;55.70;;;;;;5076188;28;20463;-85
2021/12/26 01:01:55;;;;;;;14.40;8.13;;;6.50;55.70;;;;;;5077811;28;20932;-84
2021/12/26 01:04:23;;;;;;;12.40;7.97;;;6.60;55.50;;;;;;5079988;28;20520;-84
2021/12/26 01:06:52;;;;;;;14.90;8.67;;;6.70;55.30;;;;;;5068256;28;20517;-85
2021/12/26 01:09:23;;;;;;;17.10;8.80;;;6.70;55.10;;;;;;5094542;27;20463;-85
2021/12/26 01:11:55;;;;;;;15.17;8.07;;;6.60;55.10;;;;;;5062353;28;20493;-85
2021/12/26 01:14:31;;;;;;;17.93;8.30;;;6.60;55.10;;;;;;5079597;28;20483;-85
2021/12/26 01:17:08;;;;;;;17.00;7.33;;;6.60;55.30;;;;;;5075455;28;20485;-84
2021/12/26 01:19:44;;;;;;;15.23;8.53;;;6.40;55.10;;;;;;5058127;28;22249;-85
2021/12/26 01:22:12;;;;;;;16.03;7.80;;;6.30;54.90;;;;;;5069400;28;20989;-84
2021/12/26 01:24:42;;;;;;;14.17;8.40;;;6.30;55.10;;;;;;5076304;28;20458;-84
2021/12/26 01:27:09;;;;;;;17.80;7.87;;;6.30;55.20;;;;;;5063505;28;20982;-84
2021/12/26 01:29:38;;;;;;;13.90;8.60;;;6.40;55.70;;;;;;5075585;28;20554;-84
2021/12/26 01:32:06;;;;;;;15.70;8.43;;;6.40;55.40;;;;;;5067146;28;20688;-85
2021/12/26 01:34:51;;;;;;;13.63;7.30;;;6.30;55.10;;;;;;5093662;28;20569;-85
2021/12/26 01:37:30;;;;;;;15.87;8.47;;;6.30;55.20;;;;;;5074886;28;20466;-85
2021/12/26 01:40:23;;;;;;;12.73;6.17;;;6.40;55.30;;;;;;5060064;28;20585;-85
2021/12/26 01:43:04;;;;;;;12.30;7.00;;;6.10;55.00;;;;;;5073047;28;20493;-85
2021/12/26 01:45:39;;;;;;;11.57;7.20;;;5.90;55.40;;;;;;5043969;28;20447;-83
2021/12/26 01:48:07;;;;;;;21.37;9.50;;;6.00;56.10;;;;;;5075739;28;21008;-85
2021/12/26 01:50:49;;;;;;;15.77;6.83;;;5.90;55.70;;;;;;5076875;28;20483;-85
2021/12/26 01:53:19;;;;;;;15.03;7.60;;;5.90;55.90;;;;;;5058247;28;20463;-84
2021/12/26 01:55:47;;;;;;;13.80;7.47;;;6.00;56.00;;;;;;5091365;28;20467;-84
2021/12/26 01:58:19;;;;;;;14.20;7.83;;;6.10;55.90;;;;;;5069645;28;20482;-84
2021/12/26 02:00:52;;;;;;;15.23;8.57;;;6.10;55.50;;;;;;5070210;28;20571;-83
2021/12/26 02:03:19;;;;;;;12.97;7.20;;;6.10;55.40;;;;;;5059924;28;20758;-85
2021/12/26 02:05:47;;;;;;;10.80;7.03;;;6.20;55.20;;;;;;5058181;28;20451;-82
2021/12/26 02:08:15;;;;;;;11.00;6.30;;;6.30;54.90;;;;;;5083914;27;20987;-85
2021/12/26 02:10:44;;;;;;;11.47;6.30;;;6.30;55.30;;;;;;5077219;28;20994;-85
2021/12/26 02:13:11;;;;;;;11.50;7.30;;;6.30;55.00;;;;;;5060898;28;20494;-85
2021/12/26 02:15:38;;;;;;;15.90;6.53;;;6.40;54.80;;;;;;5074211;28;20467;-82
2021/12/26 02:18:13;;;;;;;9.80;5.73;;;6.40;54.50;;;;;;5066314;28;20443;-85
2021/12/26 02:20:57;;;;;;;11.40;6.60;;;6.30;54.10;;;;;;5074838;28;20456;-84
2021/12/26 02:23:33;;;;;;;14.60;7.73;;;6.10;54.50;;;;;;5066193;27;21003;-85
2021/12/26 02:28:48;;;;;;;11.57;6.33;;;5.90;54.90;;;;;;5048541;28;20818;-84
2021/12/26 02:31:17;;;;;;;10.13;6.33;;;5.90;55.40;;;;;;5072512;28;20447;-85
2021/12/26 02:33:44;;;;;;;11.17;6.27;;;6.00;55.20;;;;;;5080920;28;20879;-84
2021/12/26 02:36:13;;;;;;;10.33;5.93;;;5.90;55.00;;;;;;5075122;28;20478;-84
2021/12/26 02:38:40;;;;;;;12.87;5.97;;;6.00;55.30;;;;;;5078220;28;20563;-84
2021/12/26 02:41:07;;;;;;;8.57;5.70;;;6.00;55.30;;;;;;5054659;28;20543;-85
2021/12/26 02:43:36;;;;;;;14.80;7.00;;;6.00;55.10;;;;;;5073197;28;20742;-82
2021/12/26 02:46:06;;;;;;;15.40;7.47;;;6.30;55.60;;;;;;5072144;28;20455;-86
2021/12/26 02:48:34;;;;;;;10.10;6.30;;;6.30;54.70;;;;;;5077277;28;20478;-84
2021/12/26 02:51:01;;;;;;;11.47;6.50;;;6.20;54.70;;;;;;5077985;28;20875;-85
2021/12/26 02:53:31;;;;;;;7.67;4.83;;;6.20;55.30;;;;;;5074092;28;20528;-85
2021/12/26 02:56:00;;;;;;;9.97;6.47;;;6.30;54.70;;;;;;5076558;28;20463;-85
2021/12/26 02:58:28;;;;;;;8.80;5.07;;;6.40;54.90;;;;;;5074227;28;20547;-85
2021/12/26 03:00:58;;;;;;;9.60;5.20;;;6.20;54.00;;;;;;5089442;28;20465;-84
2021/12/26 03:03:25;;;;;;;10.47;4.87;;;6.20;54.40;;;;;;5073700;28;20880;-85
2021/12/26 03:05:57;;;;;;;9.60;5.73;;;6.20;54.30;;;;;;5080496;28;20462;-85
2021/12/26 03:08:25;;;;;;;12.60;6.53;;;6.30;54.60;;;;;;5082654;28;20812;-85
2021/12/26 03:10:53;;;;;;;9.80;5.60;;;6.30;54.60;;;;;;5058882;28;20447;-84
2021/12/26 03:13:21;;;;;;;7.50;5.07;;;6.30;54.50;;;;;;5075838;28;20490;-81
2021/12/26 03:15:48;;;;;;;8.50;5.57;;;6.30;54.30;;;;;;5093335;27;20457;-85
2021/12/26 03:18:17;;;;;;;8.57;5.10;;;6.20;54.00;;;;;;5057026;28;20487;-85
2021/12/26 03:20:46;;;;;;;10.57;6.20;;;6.00;54.50;;;;;;5071982;28;20459;-85
2021/12/26 03:23:16;;;;;;;11.53;6.50;;;6.10;54.80;;;;;;5075050;28;20478;-84
2021/12/26 03:25:45;;;;;;;9.17;5.20;;;5.80;54.50;;;;;;5061080;28;20543;-85
2021/12/26 03:28:14;;;;;;;9.00;5.60;;;5.70;54.70;;;;;;5055647;28;20463;-85
2021/12/26 03:30:42;;;;;;;12.37;6.87;;;5.70;54.90;;;;;;5064267;28;20892;-84
2021/12/26 03:33:10;;;;;;;9.10;4.60;;;5.50;55.30;;;;;;5051953;28;20478;-85
2021/12/26 03:35:39;;;;;;;10.40;6.43;;;5.60;55.80;;;;;;5090965;28;20451;-84
2021/12/26 03:38:08;;;;;;;10.17;6.20;;;5.90;55.80;;;;;;5092712;28;20834;-85
2021/12/26 03:40:52;;;;;;;9.90;5.63;;;5.80;54.70;;;;;;5059768;28;20448;-85
2021/12/26 03:43:21;;;;;;;9.63;5.43;;;5.90;55.10;;;;;;5090016;28;20481;-85
2021/12/26 03:45:52;;;;;;;9.77;5.33;;;6.00;55.20;;;;;;5060269;28;20440;-85
2021/12/26 03:48:21;;;;;;;7.43;4.47;;;5.90;54.40;;;;;;5081734;28;20482;-85
2021/12/26 03:50:48;;;;;;;8.17;4.80;;;6.00;54.90;;;;;;5081035;28;20574;-81
2021/12/26 03:53:17;;;;;;;9.37;5.80;;;6.20;54.80;;;;;;5060646;28;20854;-84
2021/12/26 03:55:47;;;;;;;14.10;6.03;;;6.20;54.90;;;;;;5074469;28;20998;-83
2021/12/26 03:58:16;;;;;;;9.10;5.40;;;6.20;54.70;;;;;;5076387;28;20535;-85
2021/12/26 04:00:45;;;;;;;15.20;6.77;;;6.20;55.00;;;;;;5075454;28;20478;-83
2021/12/26 04:03:14;;;;;;;10.27;6.73;;;6.20;54.90;;;;;;5063821;28;21058;-84
2021/12/26 04:05:47;;;;;;;10.03;6.50;;;6.30;54.90;;;;;;5074926;28;20452;-84
2021/12/26 04:08:15;;;;;;;11.43;5.90;;;6.30;55.10;;;;;;5075278;28;20481;-85
2021/12/26 04:10:42;;;;;;;10.70;5.23;;;6.30;55.10;;;;;;5049575;28;20463;-85
2021/12/26 04:13:09;;;;;;;12.23;6.40;;;6.30;55.10;;;;;;5048039;28;20486;-85
2021/12/26 04:15:36;;;;;;;13.23;7.23;;;6.40;54.60;;;;;;5091970;28;20443;-85
2021/12/26 04:18:05;;;;;;;10.80;6.57;;;6.30;54.40;;;;;;5063076;28;20465;-85
2021/12/26 04:20:34;;;;;;;9.67;6.50;;;6.40;55.00;;;;;;5060192;28;20452;-84
2021/12/26 04:23:02;;;;;;;10.87;6.57;;;6.30;54.40;;;;;;5072234;28;21040;-85
2021/12/26 04:25:29;;;;;;;11.17;5.43;;;6.30;54.60;;;;;;5080290;28;20455;-85
2021/12/26 04:27:57;;;;;;;17.30;7.63;;;6.40;54.80;;;;;;5090675;28;20464;-85
2021/12/26 04:30:26;;;;;;;12.27;6.63;;;6.50;54.80;;;;;;5079142;28;20565;-84
2021/12/26 04:32:53;;;;;;;9.47;5.90;;;6.40;54.20;;;;;;5089214;28;21009;-85
2021/12/26 04:35:22;;;;;;;14.90;6.87;;;6.50;54.20;;;;;;5076492;28;20521;-84
2021/12/26 04:37:49;;;;;;;11.13;6.07;;;6.30;54.00;;;;;;5084100;28;20458;-85
2021/12/26 04:40:18;;;;;;;12.07;5.53;;;6.30;54.40;;;;;;5077321;27;20508;-85
2021/12/26 04:43:04;;;;;;;9.93;5.50;;;6.30;54.20;;;;;;5094767;28;20471;-84
2021/12/26 04:45:51;;;;;;;14.40;6.60;;;6.20;54.20;;;;;;5093860;27;20546;-85
2021/12/26 04:48:34;;;;;;;10.87;6.03;;;6.30;54.20;;;;;;5076846;28;20744;-85
2021/12/26 04:51:03;;;;;;;9.47;6.30;;;6.30;54.30;;;;;;5078246;27;21034;-85
2021/12/26 04:53:30;;;;;;;9.40;6.40;;;6.20;54.10;;;;;;5072311;28;20478;-85
2021/12/26 04:55:57;;;;;;;11.43;5.90;;;6.30;54.70;;;;;;5077859;28;20992;-85
2021/12/26 04:58:24;;;;;;;12.10;5.67;;;6.30;54.40;;;;;;5045500;28;20448;-85
2021/12/26 05:00:51;;;;;;;13.17;5.97;;;6.30;54.70;;;;;;5077053;28;21003;-86
2021/12/26 05:03:19;;;;;;;16.90;7.53;;;6.30;55.10;;;;;;5093188;28;20478;-85
2021/12/26 05:05:46;;;;;;;10.87;6.23;;;6.30;54.70;;;;;;5074585;28;20455;-85
2021/12/26 05:08:15;;;;;;;9.20;5.37;;;6.20;54.40;;;;;;5063541;28;20471;-85
2021/12/26 05:10:42;;;;;;;12.50;6.53;;;6.20;54.80;;;;;;5076843;28;21008;-85
2021/12/26 05:13:09;;;;;;;10.07;6.23;;;6.00;54.70;;;;;;5077755;28;20478;-85
2021/12/26 05:15:37;;;;;;;10.10;4.93;;;5.90;55.00;;;;;;5084696;28;20454;-82
2021/12/26 05:18:05;;;;;;;10.50;6.70;;;5.70;55.20;;;;;;5073876;28;20460;-85
2021/12/26 05:20:33;;;;;;;13.33;6.60;;;5.80;56.10;;;;;;5059829;28;20868;-85
2021/12/26 05:23:01;;;;;;;11.80;6.03;;;5.90;56.30;;;;;;5062879;28;20819;-85
2021/12/26 05:25:30;;;;;;;11.07;6.17;;;6.00;55.50;;;;;;5063080;28;20875;-85
2021/12/26 05:27:57;;;;;;;10.10;6.67;;;6.20;55.60;;;;;;5074313;28;20986;-85
2021/12/26 05:30:26;;;;;;;11.40;5.70;;;6.10;54.60;;;;;;5057176;28;20470;-85
2021/12/26 05:33:12;;;;;;;10.57;6.17;;;6.00;55.00;;;;;;5096409;28;20478;-85
2021/12/26 05:35:39;;;;;;;8.30;5.37;;;6.00;54.50;;;;;;5078498;28;20567;-83
2021/12/26 05:38:08;;;;;;;9.60;5.10;;;6.00;54.50;;;;;;5096531;27;20454;-85
2021/12/26 05:40:38;;;;;;;12.50;6.53;;;5.90;54.50;;;;;;5076446;28;20461;-84
2021/12/26 05:43:05;;;;;;;8.23;5.40;;;6.00;54.80;;;;;;5078241;28;20482;-85
2021/12/26 05:45:33;;;;;;;9.03;5.80;;;6.20;54.60;;;;;;5041148;28;20486;-85
2021/12/26 05:48:14;;;;;;;7.90;5.37;;;6.10;54.70;;;;;;5074456;28;20564;-85
2021/12/26 05:50:41;;;;;;;11.73;6.87;;;6.20;54.80;;;;;;5077401;28;20904;-85
2021/12/26 05:53:25;;;;;;;12.50;6.43;;;6.30;54.90;;;;;;5083978;28;20477;-85
2021/12/26 05:55:53;;;;;;;12.50;6.97;;;6.20;54.50;;;;;;5073415;28;20467;-85
2021/12/26 05:58:20;;;;;;;32.30;13.33;;;6.30;54.90;;;;;;5089146;27;20458;-83
2021/12/26 06:00:47;;;;;;;10.43;6.50;;;6.30;54.50;;;;;;5063554;28;21200;-84
2021/12/26 06:03:14;;;;;;;14.47;7.33;;;6.10;55.00;;;;;;5057556;28;20482;-84
2021/12/26 06:05:41;;;;;;;8.20;5.50;;;6.10;55.10;;;;;;5073389;28;20478;-82
2021/12/26 06:08:09;;;;;;;10.23;5.23;;;6.20;54.70;;;;;;5057334;28;20479;-85
2021/12/26 06:10:39;;;;;;;10.80;5.40;;;6.20;54.40;;;;;;5080227;28;20474;-84
2021/12/26 06:13:07;;;;;;;9.30;5.90;;;6.20;54.30;;;;;;5061411;28;20487;-84
2021/12/26 06:15:35;;;;;;;6.87;4.50;;;6.20;54.60;;;;;;5070641;28;20490;-84
2021/12/26 06:18:02;;;;;;;8.73;5.13;;;6.20;54.40;;;;;;5089644;27;20453;-85
2021/12/26 06:20:58;;;;;;;13.30;6.63;;;6.20;54.30;;;;;;5040880;28;20465;-85
2021/12/26 06:23:54;;;;;;;9.43;5.30;;;6.20;54.60;;;;;;5093702;27;20480;-85
2021/12/26 06:27:00;;;;;;;7.47;4.60;;;6.20;54.30;;;;;;5068968;28;20462;-85
2021/12/26 06:29:51;;;;;;;13.63;6.20;;;6.20;54.30;;;;;;5079934;28;20981;-85
2021/12/26 06:32:47;;;;;;;12.47;5.60;;;6.10;54.70;;;;;;5092194;27;20543;-85
2021/12/26 06:35:52;;;;;;;9.77;6.13;;;6.10;55.10;;;;;;5054316;28;20455;-84
2021/12/26 06:38:39;;;;;;;8.07;5.33;;;6.30;54.60;;;;;;5072126;28;20590;-83
2021/12/26 06:41:26;;;;;;;9.23;4.50;;;6.20;53.80;;;;;;5092750;27;20447;-84
2021/12/26 06:44:09;;;;;;;8.80;5.00;;;5.90;54.50;;;;;;5092299;28;20522;-85
2021/12/26 06:46:53;;;;;;;11.33;4.50;;;5.80;55.00;;;;;;5070919;28;20542;-84
2021/12/26 06:49:42;;;;;;;10.20;6.70;;;5.90;55.20;;;;;;5072034;28;20479;-81
2021/12/26 06:52:10;;;;;;;8.83;5.80;;;6.00;55.10;;;;;;5071760;28;20487;-83
2021/12/26 06:54:38;;;;;;;9.00;5.57;;;6.20;55.10;;;;;;5072060;28;20479;-85
2021/12/26 06:57:06;;;;;;;8.40;5.13;;;6.20;54.80;;;;;;5079935;28;20539;-84
2021/12/26 06:59:33;;;;;;;7.37;5.07;;;6.20;54.40;;;;;;5072518;28;20462;-85
2021/12/26 07:02:02;;;;;;;8.27;4.60;;;6.10;54.00;;;;;;5074113;28;20555;-84
2021/12/26 07:04:47;;;;;;;5.93;4.80;;;6.10;54.70;;;;;;5087465;28;20551;-85
2021/12/26 07:07:14;;;;;;;12.00;7.07;;;6.10;54.50;;;;;;5070656;28;20874;-85
2021/12/26 07:09:43;;;;;;;12.83;6.00;;;6.10;54.00;;;;;;5073213;28;20472;-84
2021/12/26 07:12:13;;;;;;;9.30;5.87;;;6.00;54.10;;;;;;5074176;28;20517;-84
2021/12/26 07:14:46;;;;;;;8.50;5.37;;;5.90;53.90;;;;;;5042470;28;20807;-85
2021/12/26 07:17:14;;;;;;;8.40;4.67;;;5.90;54.30;;;;;;5088589;28;20901;-84
2021/12/26 07:19:45;;;;;;;10.10;5.87;;;6.00;54.70;;;;;;5061271;28;20782;-85
2021/12/26 07:22:29;;;;;;;9.03;5.63;;;6.00;54.80;;;;;;5078346;28;20896;-85
2021/12/26 07:24:56;;;;;;;9.17;4.87;;;6.10;54.60;;;;;;5068911;28;20481;-85
2021/12/26 07:27:23;;;;;;;10.30;6.27;;;6.00;54.40;;;;;;5071535;28;20448;-85
2021/12/26 07:30:13;;;;;;;7.13;5.20;;;6.00;54.70;;;;;;5087930;28;20921;-85
2021/12/26 07:32:42;;;;;;;8.80;5.30;;;5.90;54.20;;;;;;5042712;28;20524;-83
2021/12/26 07:35:10;;;;;;;13.90;6.70;;;6.00;54.30;;;;;;5061789;28;20499;-83
2021/12/26 07:37:39;;;;;;;10.23;5.60;;;6.00;54.50;;;;;;5071782;28;20482;-85
2021/12/26 07:40:07;;;;;;;11.43;4.90;;;6.00;54.30;;;;;;5072163;28;20463;-85
2021/12/26 07:42:34;;;;;;;6.53;5.40;;;6.00;54.60;;;;;;5072596;28;20436;-85
2021/12/26 07:45:33;;;;;;;10.40;6.20;;;6.00;54.70;;;;;;5062270;28;20806;-85
2021/12/26 07:48:04;;;;;;;12.07;6.87;;;5.70;54.60;;;;;;5056140;28;20471;-85
2021/12/26 07:50:32;;;;;;;9.27;5.10;;;5.60;55.00;;;;;;5072511;28;20475;-84
2021/12/26 07:53:18;;;;;;;14.03;8.10;;;5.40;55.00;;;;;;5091774;28;20472;-85
2021/12/26 07:56:03;;;;;;;8.70;5.00;;;5.50;55.40;;;;;;5093060;28;20945;-85
2021/12/26 07:58:49;;;;;;;11.70;5.70;;;5.60;55.50;;;;;;5091580;28;20452;-81
2021/12/26 08:01:35;;;;;;;13.13;5.60;;;5.70;55.40;;;;;;5060549;28;20541;-84
2021/12/26 08:04:26;;;;;;;10.07;4.93;;;5.60;55.30;;;;;;5070751;28;20467;-86
2021/12/26 08:07:13;;;;;;;10.33;6.70;;;5.50;55.10;;;;;;5069826;28;20943;-85
2021/12/26 08:09:40;;;;;;;11.90;5.60;;;5.50;55.20;;;;;;5094932;28;21137;-84
2021/12/26 08:12:09;;;;;;;7.73;4.47;;;5.30;55.60;;;;;;5083508;28;20470;-85
2021/12/26 08:14:36;;;;;;;9.30;5.33;;;5.40;56.00;;;;;;5080780;28;20466;-85
2021/12/26 08:17:03;;;;;;;9.10;5.33;;;5.40;55.60;;;;;;5080571;28;20494;-85
2021/12/26 08:19:32;;;;;;;9.40;5.67;;;5.30;55.50;;;;;;5063833;28;20450;-85
2021/12/26 08:21:58;;;;;;;9.63;5.40;;;5.30;56.20;;;;;;5093084;28;21250;-85
2021/12/26 08:24:26;;;;;;;10.63;5.70;;;5.40;56.20;;;;;;5064365;28;20467;-83
2021/12/26 08:26:54;;;;;;;11.50;5.60;;;5.60;56.20;;;;;;5070788;28;21028;-84
2021/12/26 08:29:23;;;;;;;8.83;5.30;;;5.80;55.90;;;;;;5092671;28;21371;-84
2021/12/26 08:31:53;;;;;;;10.83;6.30;;;5.80;55.30;;;;;;5094342;28;20458;-85
2021/12/26 08:34:22;;;;;;;7.57;5.47;;;5.90;55.20;;;;;;5095318;28;20914;-86
2021/12/26 08:36:58;;;;;;;10.23;6.07;;;5.80;55.80;;;;;;5095790;28;20568;-85
2021/12/26 08:39:25;;;;;;;8.07;5.30;;;5.90;55.30;;;;;;5095800;27;20505;-83
2021/12/26 08:41:52;;;;;;;7.90;3.93;;;5.80;54.80;;;;;;5076038;28;20478;-85
2021/12/26 08:44:19;;;;;;;10.50;5.10;;;5.70;55.30;;;;;;5094367;27;20483;-85
2021/12/26 08:46:47;;;;;;;10.37;5.10;;;5.60;55.40;;;;;;5075512;28;20804;-85
2021/12/26 08:49:14;;;;;;;14.30;6.40;;;5.80;55.70;;;;;;5063231;28;20593;-85
2021/12/26 08:51:42;;;;;;;10.83;6.03;;;6.00;55.40;;;;;;5076092;28;20946;-83
2021/12/26 08:54:12;;;;;;;10.70;6.90;;;6.10;55.10;;;;;;5060670;28;20537;-86
2021/12/26 08:56:39;;;;;;;12.27;7.30;;;6.20;55.10;;;;;;5077172;28;20450;-83
2021/12/26 08:59:06;;;;;;;7.87;5.67;;;5.90;54.60;;;;;;5095189;27;20447;-85
2021/12/26 09:01:35;;;;;;;10.37;4.60;;;5.80;55.00;;;;;;5094441;28;20448;-85
2021/12/26 09:04:02;;;;;;;12.20;6.30;;;5.80;55.60;;;;;;5095623;27;20843;-84
2021/12/26 09:06:29;;;;;;;10.87;5.73;;;5.90;55.60;;;;;;5094997;27;20458;-86
2021/12/26 09:08:56;;;;;;;16.70;5.90;;;5.90;55.50;;;;;;5074698;28;20460;-85
2021/12/26 09:11:25;;;;;;;10.63;5.37;;;5.90;55.40;;;;;;5078827;28;21225;-86
2021/12/26 09:13:52;;;;;;;12.87;6.87;;;5.70;55.20;;;;;;5078220;28;20483;-85
2021/12/26 09:16:19;;;;;;;10.30;6.43;;;5.70;56.10;;;;;;5077288;28;20521;-85
2021/12/26 09:18:46;;;;;;;16.00;6.97;;;5.70;55.90;;;;;;5093082;28;20451;-84
2021/12/26 09:21:13;;;;;;;14.10;5.10;;;5.70;55.90;;;;;;5059849;28;20821;-84
2021/12/26 09:23:40;;;;;;;12.27;6.57;;;5.70;56.00;;;;;;5090798;27;20487;-85
2021/12/26 09:26:07;;;;;;;11.40;6.57;;;5.80;56.20;;;;;;5091709;28;20548;-85
2021/12/26 09:28:38;;;;;;;15.70;8.20;;;5.90;56.20;;;;;;5093787;27;20459;-85
2021/12/26 09:31:05;;;;;;;15.57;8.17;;;5.90;56.00;;;;;;5060459;28;20463;-85
2021/12/26 09:33:33;;;;;;;8.23;5.63;;;6.00;55.80;;;;;;5079087;28;20481;-85
2021/12/26 09:36:00;;;;;;;12.23;7.00;;;6.00;55.50;;;;;;5070723;27;20457;-83
2021/12/26 09:38:28;;;;;;;12.70;7.73;;;6.10;55.80;;;;;;5070279;28;20501;-83
2021/12/26 09:40:56;;;;;;;13.93;8.50;;;6.10;55.50;;;;;;5076147;28;20583;-86
2021/12/26 09:43:23;;;;;;;14.17;6.83;;;6.10;55.90;;;;;;5071539;28;20495;-83
2021/12/26 09:45:51;;;;;;;15.80;7.33;;;6.30;56.10;;;;;;5074104;28;20451;-85
2021/12/26 09:48:19;;;;;;;12.30;8.03;;;6.30;55.50;;;;;;5068336;28;20458;-84
2021/12/26 09:50:46;;;;;;;10.93;6.50;;;6.30;55.40;;;;;;5070730;28;20475;-86
2021/12/26 09:53:14;;;;;;;14.83;7.70;;;6.40;55.50;;;;;;5090786;28;20478;-86
2021/12/26 09:55:41;;;;;;;11.27;7.33;;;6.50;55.00;;;;;;5090510;28;20466;-85
2021/12/26 09:58:08;;;;;;;11.40;6.80;;;6.50;55.00;;;;;;5073983;28;20464;-87
2021/12/26 10:00:38;;;;;;;7.67;6.20;;;6.40;54.80;;;;;;5055326;28;20440;-84
2021/12/26 10:03:19;;;;;;;23.77;11.77;;;6.40;55.20;;;;;;5057300;28;20443;-86
2021/12/26 10:06:11;;;;;;;12.53;6.33;;;6.30;55.70;;;;;;5063863;28;20451;-85
2021/12/26 10:08:56;;;;;;;17.63;8.27;;;6.40;55.60;;;;;;5091151;28;20459;-84
2021/12/26 10:11:26;;;;;;;11.90;6.40;;;6.40;56.00;;;;;;5075310;28;20467;-86
2021/12/26 10:13:56;;;;;;;12.30;6.50;;;6.30;55.70;;;;;;5094091;27;20536;-86
2021/12/26 10:16:26;;;;;;;17.90;8.70;;;6.30;56.00;;;;;;5075531;28;20450;-86
2021/12/26 10:18:55;;;;;;;18.57;8.23;;;6.20;56.20;;;;;;5076143;28;21189;-86
2021/12/26 10:21:27;;;;;;;17.43;9.63;;;6.20;56.20;;;;;;5075527;28;20849;-85
2021/12/26 10:23:56;;;;;;;14.10;6.70;;;6.40;56.10;;;;;;5061593;28;20482;-85
2021/12/26 10:26:25;;;;;;;20.63;6.33;;;6.30;55.60;;;;;;5090496;27;20488;-87
2021/12/26 10:29:17;;;;;;;16.60;8.30;;;6.40;55.80;;;;;;5055548;28;20461;-85
2021/12/26 10:31:58;;;;;;;12.97;7.73;;;6.60;55.70;;;;;;5087828;28;20515;-85
2021/12/26 10:34:30;;;;;;;19.20;10.07;;;6.50;55.90;;;;;;5074270;28;20503;-85
2021/12/26 10:36:58;;;;;;;11.10;7.00;;;6.60;55.70;;;;;;5086575;28;20562;-84
2021/12/26 10:39:27;;;;;;;11.10;5.77;;;6.50;55.60;;;;;;5073325;28;20466;-86
2021/12/26 10:41:56;;;;;;;12.87;6.80;;;6.40;55.70;;;;;;5073506;28;20474;-85
2021/12/26 10:44:30;;;;;;;12.57;7.00;;;6.40;55.80;;;;;;5064230;28;20463;-85
2021/12/26 10:47:05;;;;;;;11.50;7.23;;;6.40;56.10;;;;;;5071160;28;20455;-84
2021/12/26 10:49:39;;;;;;;15.60;7.23;;;6.30;56.30;;;;;;5063417;28;21099;-85
2021/12/26 10:52:12;;;;;;;13.97;7.67;;;6.40;56.60;;;;;;5060939;28;20473;-85
2021/12/26 10:54:41;;;;;;;13.87;6.57;;;6.50;56.40;;;;;;5071101;28;20471;-84
2021/12/26 10:57:12;;;;;;;15.63;10.10;;;6.60;56.40;;;;;;5078196;28;20455;-85
2021/12/26 10:59:44;;;;;;;12.67;6.90;;;6.50;56.10;;;;;;5068467;28;20652;-85
2021/12/26 11:02:20;;;;;;;16.70;7.97;;;6.40;56.50;;;;;;5089912;28;20458;-85
2021/12/26 11:05:02;;;;;;;18.63;7.90;;;6.50;56.10;;;;;;5090720;27;20475;-86
2021/12/26 11:07:30;;;;;;;18.40;7.93;;;6.60;56.10;;;;;;5070001;28;20467;-85
2021/12/26 11:10:05;;;;;;;12.17;7.33;;;6.60;56.20;;;;;;5072475;28;20614;-84
2021/12/26 11:12:46;;;;;;;9.30;7.00;;;6.70;56.10;;;;;;5072591;28;20446;-85
2021/12/26 11:15:15;;;;;;;15.17;7.90;;;6.80;55.70;;;;;;5074858;28;20462;-85
2021/12/26 11:17:46;;;;;;;11.90;6.40;;;6.80;55.70;;;;;;5091374;28;20463;-85
2021/12/26 11:20:28;;;;;;;19.40;7.20;;;6.90;56.00;;;;;;5087337;28;20459;-86
2021/12/26 11:22:55;;;;;;;8.90;6.40;;;6.80;55.90;;;;;;5077489;28;21033;-86
2021/12/26 11:25:24;;;;;;;14.07;7.40;;;6.90;55.90;;;;;;5086533;28;20476;-84
2021/12/26 11:27:51;;;;;;;13.70;7.70;;;6.80;55.80;;;;;;5060006;28;20464;-85
2021/12/26 11:30:19;;;;;;;15.13;7.33;;;6.80;56.10;;;;;;5060396;28;20887;-85
2021/12/26 11:32:47;;;;;;;14.03;8.50;;;6.90;56.00;;;;;;5071344;28;20941;-86
2021/12/26 11:35:14;;;;;;;17.60;9.13;;;6.90;55.80;;;;;;5059794;28;20463;-86
2021/12/26 11:37:43;;;;;;;14.20;8.30;;;6.90;56.00;;;;;;5088918;28;20470;-86
2021/12/26 11:40:29;;;;;;;13.77;8.13;;;6.90;56.10;;;;;;5064459;28;20439;-85
2021/12/26 11:43:43;;;;;;;14.77;7.73;;;6.80;56.20;;;;;;5078984;28;20471;-85
2021/12/26 11:46:46;;;;;;;12.17;7.43;;;6.70;56.40;;;;;;5096248;28;20458;-85
2021/12/26 11:49:49;;;;;;;14.60;7.73;;;6.80;56.60;;;;;;5093580;28;20458;-85
2021/12/26 11:53:17;;;;;;;13.17;8.20;;;6.80;57.00;;;;;;5095181;27;20455;-83
2021/12/26 11:56:27;;;;;;;21.30;8.93;;;6.70;56.50;;;;;;5083019;27;20458;-85
2021/12/26 11:59:13;;;;;;;17.13;8.80;;;6.60;56.70;;;;;;5059078;28;20455;-84
2021/12/26 12:01:44;;;;;;;19.27;7.80;;;6.80;56.90;;;;;;5095123;28;20469;-85
2021/12/26 12:04:15;;;;;;;17.17;9.50;;;6.80;57.00;;;;;;5078095;27;21056;-85
2021/12/26 12:06:42;;;;;;;12.27;7.20;;;6.90;57.00;;;;;;5095239;28;20451;-84
2021/12/26 12:09:28;;;;;;;18.90;8.97;;;7.00;57.20;;;;;;5093229;28;20462;-84
2021/12/26 12:12:08;;;;;;;16.23;9.30;;;7.10;56.90;;;;;;5076821;28;23471;-85
2021/12/26 12:14:53;;;;;;;15.63;9.33;;;7.10;56.40;;;;;;5078203;28;20466;-82
2021/12/26 12:17:23;;;;;;;26.67;13.00;;;7.20;56.80;;;;;;5066606;28;20537;-82
2021/12/26 12:20:14;;;;;;;20.30;9.37;;;7.20;56.50;;;;;;5061983;28;20512;-82
2021/12/26 12:23:13;;;;;;;17.47;10.00;;;7.20;56.40;;;;;;5062645;28;20966;-84
2021/12/26 12:25:49;;;;;;;15.83;9.00;;;7.00;56.50;;;;;;5091908;28;20498;-85
2021/12/26 12:28:19;;;;;;;25.80;13.37;;;7.00;56.90;;;;;;5091825;27;21023;-85
2021/12/26 12:30:48;;;;;;;21.90;13.33;;;7.20;57.30;;;;;;5082556;28;20478;-85
2021/12/26 12:33:21;;;;;;;35.23;16.40;;;7.20;57.10;;;;;;5094458;28;20823;-86
2021/12/26 12:35:54;;;;;;;26.80;12.47;;;7.30;57.20;;;;;;5060080;28;20460;-85
2021/12/26 12:38:31;;;;;;;20.13;11.20;;;7.20;57.30;;;;;;5064054;28;20462;-82
2021/12/26 12:41:01;;;;;;;24.13;13.40;;;7.30;57.20;;;;;;5096113;28;20447;-82
2021/12/26 12:43:30;;;;;;;20.57;10.80;;;7.30;57.30;;;;;;5072463;28;20470;-86
2021/12/26 12:46:05;;;;;;;22.30;10.07;;;7.30;57.40;;;;;;5063671;28;20640;-86
2021/12/26 12:48:38;;;;;;;24.70;11.57;;;7.30;57.20;;;;;;5092576;28;20560;-86
2021/12/26 12:51:34;;;;;;;24.90;10.03;;;7.40;57.10;;;;;;5089872;28;20490;-85
2021/12/26 12:54:03;;;;;;;19.10;9.37;;;7.30;57.20;;;;;;5074541;28;21226;-85
2021/12/26 12:56:44;;;;;;;19.40;9.73;;;7.20;57.50;;;;;;5090252;28;20609;-86
2021/12/26 12:59:38;;;;;;;14.43;8.70;;;7.20;57.40;;;;;;5066917;28;20466;-84
2021/12/26 13:02:12;;;;;;;23.93;13.50;;;7.20;57.60;;;;;;5077254;28;21354;-85
2021/12/26 13:04:45;;;;;;;24.87;16.20;;;7.40;57.70;;;;;;5072873;28;20493;-86
2021/12/26 13:07:18;;;;;;;24.63;9.80;;;7.50;57.40;;;;;;5077482;28;20454;-86
2021/12/26 13:09:51;;;;;;;17.50;11.57;;;7.30;57.50;;;;;;5092552;28;20465;-86
2021/12/26 13:12:19;;;;;;;17.80;9.57;;;7.10;57.60;;;;;;5085881;28;20468;-86
2021/12/26 13:14:49;;;;;;;17.00;9.60;;;7.00;58.10;;;;;;5074551;28;20470;-85
2021/12/26 13:17:24;;;;;;;16.03;8.33;;;6.90;58.30;;;;;;5046848;28;20979;-86